createdAt,value
2023-03-12T00:03:42.221Z,8.63
2023-03-12T00:08:44.845Z,8.43
2023-03-12T00:13:51.562Z,10.20
2023-03-12T00:18:54.942Z,10.82
2023-03-12T00:23:57.134Z,14.07
2023-03-12T00:28:59.216Z,8.48
2023-03-12T00:34:02.403Z,13.63
2023-03-12T00:39:04.527Z,11.70
2023-03-12T00:44:06.744Z,9.98
2023-03-12T00:49:09.002Z,11.70
2023-03-12T00:54:11.102Z,14.20
2023-03-12T00:59:14.476Z,16.17
2023-03-12T01:04:17.731Z,15.45
2023-03-12T01:09:19.844Z,14.95
2023-03-12T01:14:22.146Z,10.15
2023-03-12T01:19:24.522Z,11.25
2023-03-12T01:24:26.548Z,12.52
2023-03-12T01:29:28.557Z,8.25
2023-03-12T01:34:31.693Z,15.90
2023-03-12T01:39:33.801Z,12.45
2023-03-12T01:44:57.934Z,9.80
2023-03-12T01:50:01.333Z,12.90
2023-03-12T01:55:09.364Z,14.38
2023-03-12T02:00:19.136Z,10.50
2023-03-12T02:05:45.010Z,11.98
2023-03-12T02:10:47.512Z,10.32
2023-03-12T02:15:50.422Z,13.10
2023-03-12T02:21:02.486Z,14.40
2023-03-12T02:26:06.507Z,11.88
2023-03-12T02:31:14.743Z,10.75
2023-03-12T02:36:17.006Z,12.70
2023-03-12T02:41:26.603Z,12.15
2023-03-12T02:46:32.501Z,9.88
2023-03-12T02:51:34.984Z,16.38
2023-03-12T02:56:37.880Z,16.23
2023-03-12T03:01:41.600Z,12.73
2023-03-12T03:06:44.497Z,12.30
2023-03-12T03:11:47.382Z,16.95
2023-03-12T03:16:50.471Z,14.02
2023-03-12T03:21:52.764Z,11.75
2023-03-12T03:26:55.403Z,16.38
2023-03-12T03:31:57.748Z,11.27
2023-03-12T03:36:59.864Z,11.98
2023-03-12T03:42:02.187Z,13.60
2023-03-12T03:47:07.552Z,15.32
2023-03-12T03:52:09.760Z,11.60
2023-03-12T03:57:12.271Z,12.52
2023-03-12T04:02:15.014Z,12.25
2023-03-12T04:07:17.992Z,13.38
2023-03-12T04:12:20.562Z,13.48
2023-03-12T04:17:22.717Z,13.40
2023-03-12T04:22:25.198Z,15.55
2023-03-12T04:27:27.722Z,12.75
2023-03-12T04:32:29.891Z,18.05
2023-03-12T04:37:34.011Z,13.95
2023-03-12T04:42:37.670Z,13.93
2023-03-12T04:47:39.805Z,13.13
2023-03-12T04:52:42.553Z,12.63
2023-03-12T04:57:44.732Z,17.13
2023-03-12T05:02:46.963Z,13.48
2023-03-12T05:07:49.207Z,14.30
2023-03-12T05:12:51.716Z,14.10
2023-03-12T05:17:55.630Z,20.05
2023-03-12T05:22:58.129Z,14.85
2023-03-12T05:28:00.577Z,14.70
2023-03-12T05:33:03.388Z,14.65
2023-03-12T05:38:06.925Z,17.02
2023-03-12T05:43:09.194Z,15.23
2023-03-12T05:48:11.710Z,15.55
2023-03-12T05:53:13.897Z,17.30
2023-03-12T05:58:17.625Z,17.05
2023-03-12T06:03:20.126Z,19.00
2023-03-12T06:08:23.871Z,14.48
2023-03-12T06:13:28.003Z,16.65
2023-03-12T06:18:33.468Z,15.63
2023-03-12T06:23:37.935Z,18.30
2023-03-12T06:28:41.022Z,17.02
2023-03-12T06:33:43.662Z,14.95
2023-03-12T06:38:45.665Z,15.90
2023-03-12T06:43:48.012Z,15.65
2023-03-12T06:48:50.304Z,17.45
2023-03-12T06:53:52.575Z,15.23
2023-03-12T06:58:54.820Z,17.48
2023-03-12T07:03:56.870Z,21.17
2023-03-12T07:08:59.278Z,17.15
2023-03-12T07:14:01.837Z,14.73
2023-03-12T07:19:04.262Z,16.00
2023-03-12T07:24:08.215Z,14.77
2023-03-12T07:29:10.731Z,16.35
2023-03-12T07:34:13.669Z,15.80
2023-03-12T07:39:15.825Z,23.88
2023-03-12T07:44:17.960Z,21.65
2023-03-12T07:49:20.519Z,16.42
2023-03-12T07:54:25.723Z,20.98
2023-03-12T07:59:27.991Z,16.02
2023-03-12T08:04:30.449Z,19.20
2023-03-12T08:09:33.293Z,21.35
2023-03-12T08:14:36.175Z,21.98
2023-03-12T08:19:38.620Z,19.88
2023-03-12T08:24:40.915Z,21.80
2023-03-12T08:29:42.980Z,21.55
2023-03-12T08:34:45.053Z,21.55
2023-03-12T08:39:47.058Z,24.13
2023-03-12T08:44:49.390Z,28.15
2023-03-12T08:49:51.790Z,35.50
2023-03-12T08:54:54.045Z,42.28
2023-03-12T08:59:56.260Z,40.78
2023-03-12T09:04:58.461Z,47.78
2023-03-12T09:10:00.749Z,65.85
2023-03-12T09:15:04.727Z,52.60
2023-03-12T09:20:09.410Z,62.58
2023-03-12T09:25:12.319Z,57.88
2023-03-12T09:30:17.243Z,52.25
2023-03-12T09:35:19.430Z,55.88
2023-03-12T09:40:25.624Z,50.55
2023-03-12T09:45:31.918Z,49.42
2023-03-12T09:50:43.472Z,45.03
2023-03-12T09:55:49.006Z,46.55
2023-03-12T10:00:58.333Z,43.78
2023-03-12T10:06:22.040Z,40.47
2023-03-12T10:11:59.566Z,49.58
2023-03-12T10:17:23.480Z,44.38
2023-03-12T10:22:47.145Z,36.10
2023-03-12T10:27:49.946Z,42.05
2023-03-12T10:32:57.590Z,42.25
2023-03-12T10:38:02.195Z,41.85
2023-03-12T10:43:07.022Z,32.63
2023-03-12T10:48:17.548Z,41.30
2023-03-12T10:53:32.023Z,40.03
2023-03-12T10:58:36.152Z,40.13
2023-03-12T11:03:38.645Z,39.35
2023-03-12T11:08:41.500Z,37.35
2023-03-12T11:13:43.671Z,33.60
2023-03-12T11:18:59.874Z,34.58
2023-03-12T11:24:07.217Z,38.88
2023-03-12T11:29:31.353Z,31.35
2023-03-12T11:34:36.874Z,38.05
2023-03-12T11:40:11.356Z,33.47
2023-03-12T11:45:38.052Z,30.00
2023-03-12T11:50:52.027Z,27.42
2023-03-12T11:56:26.228Z,39.22
2023-03-12T12:01:47.225Z,32.20
2023-03-12T12:07:04.615Z,25.63
2023-03-12T12:12:29.921Z,26.70
2023-03-12T12:17:52.434Z,18.15
2023-03-12T12:23:28.677Z,24.45
2023-03-12T12:28:45.557Z,32.92
2023-03-12T12:33:56.369Z,25.83
2023-03-12T12:39:09.894Z,23.58
2023-03-12T12:44:16.214Z,29.67
2023-03-12T12:49:25.892Z,26.52
2023-03-12T12:54:35.809Z,28.63
2023-03-12T12:59:43.441Z,30.73
2023-03-12T13:04:46.727Z,29.25
2023-03-12T13:09:54.422Z,26.33
2023-03-12T13:14:58.824Z,30.88
2023-03-12T13:20:11.336Z,28.50
2023-03-12T13:25:30.705Z,26.65
2023-03-12T13:30:32.733Z,35.55
2023-03-12T13:35:39.756Z,29.15
2023-03-12T13:40:51.080Z,29.88
2023-03-12T13:45:55.964Z,23.50
2023-03-12T13:51:02.313Z,29.98
2023-03-12T13:56:09.604Z,35.95
2023-03-12T14:01:17.099Z,37.97
2023-03-12T14:06:22.253Z,30.60
2023-03-12T14:11:41.820Z,33.65
2023-03-12T14:16:46.717Z,31.58
2023-03-12T14:21:50.716Z,26.05
2023-03-12T14:26:54.905Z,30.00
2023-03-12T14:32:04.533Z,26.45
2023-03-12T14:37:18.073Z,33.22
2023-03-12T14:42:38.273Z,32.53
2023-03-12T14:47:42.733Z,34.97
2023-03-12T14:52:45.224Z,33.00
2023-03-12T14:57:48.202Z,28.73
2023-03-12T15:02:53.262Z,36.85
2023-03-12T15:08:01.765Z,26.33
2023-03-12T15:13:05.229Z,31.38
2023-03-12T15:18:13.161Z,31.95
2023-03-12T15:23:17.379Z,33.60
2023-03-12T15:28:21.247Z,25.25
2023-03-12T15:33:26.572Z,30.52
2023-03-12T15:38:31.244Z,29.65
2023-03-12T15:43:33.522Z,25.30
2023-03-12T15:48:40.088Z,33.33
2023-03-12T15:53:42.334Z,33.67
2023-03-12T15:58:45.712Z,35.60
2023-03-12T16:03:47.934Z,39.40
2023-03-12T16:08:55.811Z,28.60
2023-03-12T16:14:17.625Z,26.48
2023-03-12T16:19:22.463Z,27.48
2023-03-12T16:24:24.600Z,35.22
2023-03-12T16:29:32.435Z,34.25
2023-03-12T16:34:34.481Z,24.20
2023-03-12T16:39:36.669Z,31.40
2023-03-12T16:44:40.817Z,28.83
2023-03-12T16:49:44.075Z,37.28
2023-03-12T16:54:48.689Z,31.02
2023-03-12T16:59:50.991Z,32.15
2023-03-12T17:04:53.289Z,34.67
2023-03-12T17:09:55.467Z,37.47
2023-03-12T17:14:59.459Z,37.80
2023-03-12T17:20:01.640Z,35.65
2023-03-12T17:25:05.138Z,41.00
2023-03-12T17:30:08.000Z,36.95
2023-03-12T17:35:10.648Z,41.50
2023-03-12T17:40:13.097Z,38.53
2023-03-12T17:45:15.499Z,44.58
2023-03-12T17:50:17.908Z,32.20
2023-03-12T17:55:19.937Z,41.13
2023-03-12T18:00:23.090Z,30.48
2023-03-12T18:05:25.335Z,33.60
2023-03-12T18:10:27.487Z,40.58
2023-03-12T18:15:29.474Z,45.38
2023-03-12T18:20:38.601Z,39.17
2023-03-12T18:25:41.557Z,34.25
2023-03-12T18:30:47.370Z,31.92
2023-03-12T18:35:49.490Z,37.83
2023-03-12T18:40:51.588Z,37.53
2023-03-12T18:45:53.660Z,42.25
2023-03-12T18:50:55.768Z,42.88
2023-03-12T18:55:58.891Z,32.55
2023-03-12T19:01:01.750Z,34.35
2023-03-12T19:06:11.886Z,31.42
2023-03-12T19:11:16.065Z,31.45
2023-03-12T19:16:21.896Z,37.58
2023-03-12T19:21:24.331Z,44.70
2023-03-12T19:26:26.447Z,30.05
2023-03-12T19:31:28.667Z,33.65
2023-03-12T19:36:30.735Z,35.92
2023-03-12T19:41:34.717Z,29.15
2023-03-12T19:46:36.810Z,33.28
2023-03-12T19:51:40.391Z,33.50
2023-03-12T19:56:42.544Z,38.75
2023-03-12T20:01:44.702Z,41.83
2023-03-12T20:06:47.318Z,33.38
2023-03-12T20:11:49.421Z,41.08
2023-03-12T20:16:51.612Z,37.85
2023-03-12T20:21:55.009Z,40.67
2023-03-12T20:26:57.365Z,37.17
2023-03-12T20:31:59.684Z,40.15
2023-03-12T20:37:01.881Z,46.25
2023-03-12T20:42:04.090Z,37.65
2023-03-12T20:47:06.098Z,36.47
2023-03-12T20:52:08.165Z,42.47
2023-03-12T20:57:10.199Z,41.33
2023-03-12T21:02:13.989Z,35.78
2023-03-12T21:07:16.046Z,33.88
2023-03-12T21:12:18.045Z,47.95
2023-03-12T21:17:20.078Z,31.33
2023-03-12T21:22:22.062Z,37.42
2023-03-12T21:27:24.308Z,34.28
2023-03-12T21:32:26.878Z,27.58
2023-03-12T21:37:28.940Z,28.60
2023-03-12T21:42:32.945Z,39.33
2023-03-12T21:47:38.315Z,31.33
2023-03-12T21:52:43.564Z,33.58
2023-03-12T21:57:45.858Z,26.60
2023-03-12T22:02:47.955Z,24.65
2023-03-12T22:07:50.079Z,27.20
2023-03-12T22:12:53.298Z,28.98
2023-03-12T22:17:55.384Z,26.08
2023-03-12T22:22:57.677Z,29.45
2023-03-12T22:27:59.690Z,33.95
2023-03-12T22:33:01.727Z,28.08
2023-03-12T22:38:03.953Z,28.52
2023-03-12T22:43:05.993Z,27.85
2023-03-12T22:48:08.074Z,36.05
2023-03-12T22:53:10.104Z,32.53
2023-03-12T22:58:12.195Z,32.85
2023-03-12T23:03:14.292Z,18.10
2023-03-12T23:08:16.433Z,23.00
2023-03-12T23:13:18.457Z,23.00
2023-03-12T23:18:21.386Z,24.95
2023-03-12T23:23:23.446Z,25.52
2023-03-12T23:28:27.230Z,26.48
2023-03-12T23:33:30.338Z,31.55
2023-03-12T23:38:33.535Z,32.60
2023-03-12T23:43:36.479Z,23.65
2023-03-12T23:48:40.047Z,20.67
2023-03-12T23:53:44.077Z,31.55
2023-03-12T23:58:46.870Z,29.30
